sensor_id;sensor_type;location;lat;lon;timestamp;pressure;altitude;pressure_sealevel;temperature;humidity
54856;BME280;40748;53.168;5.800;2023-02-19T00:01:44;101531.48;;;9.62;100.00
54856;BME280;40748;53.168;5.800;2023-02-19T00:04:14;101534.34;;;9.71;100.00
54856;BME280;40748;53.168;5.800;2023-02-19T00:06:44;101533.01;;;9.76;100.00
54856;BME280;40748;53.168;5.800;2023-02-19T00:09:14;101535.1;;;9.70;100.00
54856;BME280;40748;53.168;5.800;2023-02-19T00:11:44;101536.81;;;9.72;100.00
54856;BME280;40748;53.168;5.800;2023-02-19T00:14:15;101539.42;;;9.69;100.00
54856;BME280;40748;53.168;5.800;2023-02-19T00:16:43;101537.93;;;9.76;100.00
54856;BME280;40748;53.168;5.800;2023-02-19T00:19:14;101541.85;;;9.58;100.00
54856;BME280;40748;53.168;5.800;2023-02-19T00:21:43;101544.48;;;9.53;100.00
54856;BME280;40748;53.168;5.800;2023-02-19T00:24:14;101548.99;;;9.46;100.00
54856;BME280;40748;53.168;5.800;2023-02-19T00:26:44;101548.99;;;9.66;100.00
54856;BME280;40748;53.168;5.800;2023-02-19T00:29:14;101542.68;;;9.55;100.00
54856;BME280;40748;53.168;5.800;2023-02-19T00:31:43;101546.25;;;9.60;100.00
54856;BME280;40748;53.168;5.800;2023-02-19T00:36:43;101542.19;;;9.71;100.00
54856;BME280;40748;53.168;5.800;2023-02-19T00:39:14;101541.6;;;9.69;100.00
54856;BME280;40748;53.168;5.800;2023-02-19T00:41:43;101532.12;;;9.68;100.00
54856;BME280;40748;53.168;5.800;2023-02-19T00:44:13;101535.93;;;9.75;100.00
54856;BME280;40748;53.168;5.800;2023-02-19T00:46:44;101542.14;;;9.71;100.00
54856;BME280;40748;53.168;5.800;2023-02-19T00:49:15;101537.14;;;9.62;100.00
54856;BME280;40748;53.168;5.800;2023-02-19T00:51:44;101538.17;;;9.56;100.00
54856;BME280;40748;53.168;5.800;2023-02-19T00:54:14;101543.11;;;9.61;100.00
54856;BME280;40748;53.168;5.800;2023-02-19T00:56:43;101540.75;;;9.60;100.00
54856;BME280;40748;53.168;5.800;2023-02-19T00:59:14;101543.45;;;9.67;100.00
54856;BME280;40748;53.168;5.800;2023-02-19T01:01:43;101537.0;;;9.59;100.00
54856;BME280;40748;53.168;5.800;2023-02-19T01:04:13;101540.09999999999;;;9.61;100.00
54856;BME280;40748;53.168;5.800;2023-02-19T01:06:43;101538.7;;;9.50;100.00
54856;BME280;40748;53.168;5.800;2023-02-19T01:09:13;101548.03;;;9.63;100.00
54856;BME280;40748;53.168;5.800;2023-02-19T01:11:43;101547.40000000001;;;9.48;100.00
54856;BME280;40748;53.168;5.800;2023-02-19T01:14:13;101550.17;;;9.42;100.00
54856;BME280;40748;53.168;5.800;2023-02-19T01:19:14;101550.56;;;9.51;100.00
54856;BME280;40748;53.168;5.800;2023-02-19T01:21:43;101548.11;;;9.46;100.00
54856;BME280;40748;53.168;5.800;2023-02-19T01:24:13;101553.68999999999;;;9.41;100.00
54856;BME280;40748;53.168;5.800;2023-02-19T01:29:13;101551.51;;;9.45;100.00
54856;BME280;40748;53.168;5.800;2023-02-19T01:31:43;101564.06;;;9.28;100.00
54856;BME280;40748;53.168;5.800;2023-02-19T01:34:13;101557.56;;;9.20;100.00
54856;BME280;40748;53.168;5.800;2023-02-19T01:36:43;101561.01999999999;;;9.22;100.00
54856;BME280;40748;53.168;5.800;2023-02-19T01:39:13;101562.73;;;9.24;100.00
54856;BME280;40748;53.168;5.800;2023-02-19T01:41:43;101569.37000000001;;;9.19;100.00
54856;BME280;40748;53.168;5.800;2023-02-19T01:46:44;101569.26;;;9.22;100.00
54856;BME280;40748;53.168;5.800;2023-02-19T01:49:14;101570.03;;;9.08;100.00
54856;BME280;40748;53.168;5.800;2023-02-19T01:51:45;101571.95;;;9.09;100.00
54856;BME280;40748;53.168;5.800;2023-02-19T01:54:14;101568.53;;;8.93;100.00
54856;BME280;40748;53.168;5.800;2023-02-19T01:56:44;101576.93000000001;;;8.84;100.00
54856;BME280;40748;53.168;5.800;2023-02-19T01:59:13;101574.17;;;8.90;100.00
54856;BME280;40748;53.168;5.800;2023-02-19T02:01:43;101579.14;;;8.79;100.00
54856;BME280;40748;53.168;5.800;2023-02-19T02:04:13;101585.49;;;8.69;100.00
54856;BME280;40748;53.168;5.800;2023-02-19T02:06:45;101582.34999999999;;;8.83;100.00
54856;BME280;40748;53.168;5.800;2023-02-19T02:09:14;101584.53;;;8.84;100.00
54856;BME280;40748;53.168;5.800;2023-02-19T02:11:44;101585.22;;;8.78;100.00
54856;BME280;40748;53.168;5.800;2023-02-19T02:14:13;101582.75;;;8.97;100.00
54856;BME280;40748;53.168;5.800;2023-02-19T02:16:46;101589.65;;;8.88;100.00
54856;BME280;40748;53.168;5.800;2023-02-19T02:19:18;101589.18;;;8.99;100.00
54856;BME280;40748;53.168;5.800;2023-02-19T02:21:47;101601.4;;;9.12;100.00
54856;BME280;40748;53.168;5.800;2023-02-19T02:24:20;101601.4;;;8.95;100.00
54856;BME280;40748;53.168;5.800;2023-02-19T02:26:45;101597.61;;;8.99;100.00
54856;BME280;40748;53.168;5.800;2023-02-19T02:29:19;101608.04000000001;;;8.98;100.00
54856;BME280;40748;53.168;5.800;2023-02-19T02:31:44;101612.08;;;9.01;100.00
54856;BME280;40748;53.168;5.800;2023-02-19T02:34:15;101611.63;;;9.14;100.00
54856;BME280;40748;53.168;5.800;2023-02-19T02:36:44;101607.98;;;9.24;100.00
54856;BME280;40748;53.168;5.800;2023-02-19T02:39:14;101607.98;;;9.10;100.00
54856;BME280;40748;53.168;5.800;2023-02-19T02:41:44;101610.02;;;9.12;100.00
54856;BME280;40748;53.168;5.800;2023-02-19T02:44:13;101616.41;;;9.11;100.00
54856;BME280;40748;53.168;5.800;2023-02-19T02:46:44;101624.17;;;9.27;100.00
54856;BME280;40748;53.168;5.800;2023-02-19T02:49:16;101625.44;;;9.17;100.00
54856;BME280;40748;53.168;5.800;2023-02-19T02:51:44;101632.64;;;9.04;100.00
54856;BME280;40748;53.168;5.800;2023-02-19T02:54:17;101633.06;;;9.13;100.00
54856;BME280;40748;53.168;5.800;2023-02-19T02:56:45;101636.65999999999;;;9.12;100.00
54856;BME280;40748;53.168;5.800;2023-02-19T02:59:14;101636.65999999999;;;9.20;100.00
54856;BME280;40748;53.168;5.800;2023-02-19T03:01:44;101639.33;;;9.37;100.00
54856;BME280;40748;53.168;5.800;2023-02-19T03:04:18;101637.03;;;9.44;100.00
54856;BME280;40748;53.168;5.800;2023-02-19T03:06:43;101640.48;;;9.48;100.00
54856;BME280;40748;53.168;5.800;2023-02-19T03:09:14;101644.72;;;9.51;100.00
54856;BME280;40748;53.168;5.800;2023-02-19T03:14:14;101665.61;;;9.49;100.00
54856;BME280;40748;53.168;5.800;2023-02-19T03:19:14;101677.5;;;9.46;100.00
54856;BME280;40748;53.168;5.800;2023-02-19T03:21:44;101684.74;;;9.43;100.00
54856;BME280;40748;53.168;5.800;2023-02-19T03:24:13;101684.93999999999;;;9.42;100.00
54856;BME280;40748;53.168;5.800;2023-02-19T03:26:43;101680.02;;;9.39;100.00
54856;BME280;40748;53.168;5.800;2023-02-19T03:29:13;101673.20999999999;;;9.35;100.00
54856;BME280;40748;53.168;5.800;2023-02-19T03:31:44;101684.64;;;9.29;100.00
54856;BME280;40748;53.168;5.800;2023-02-19T03:34:14;101691.06;;;9.23;100.00
54856;BME280;40748;53.168;5.800;2023-02-19T03:36:44;101689.31;;;9.19;100.00
54856;BME280;40748;53.168;5.800;2023-02-19T03:39:14;101692.55;;;9.10;100.00
54856;BME280;40748;53.168;5.800;2023-02-19T03:41:45;101699.41;;;8.94;100.00
54856;BME280;40748;53.168;5.800;2023-02-19T03:46:44;101702.48;;;8.83;100.00
54856;BME280;40748;53.168;5.800;2023-02-19T03:49:14;101712.11;;;8.81;100.00
54856;BME280;40748;53.168;5.800;2023-02-19T03:51:44;101713.09;;;8.71;100.00
54856;BME280;40748;53.168;5.800;2023-02-19T03:54:15;101715.03;;;8.59;100.00
54856;BME280;40748;53.168;5.800;2023-02-19T03:56:44;101715.43000000001;;;8.48;100.00
54856;BME280;40748;53.168;5.800;2023-02-19T03:59:15;101717.04999999999;;;8.42;100.00
54856;BME280;40748;53.168;5.800;2023-02-19T04:01:45;101718.55;;;8.39;100.00
54856;BME280;40748;53.168;5.800;2023-02-19T04:04:15;101727.37;;;8.48;100.00
54856;BME280;40748;53.168;5.800;2023-02-19T04:06:44;101731.88;;;8.51;100.00
54856;BME280;40748;53.168;5.800;2023-02-19T04:09:13;101749.58;;;8.52;100.00
54856;BME280;40748;53.168;5.800;2023-02-19T04:11:43;101754.39;;;8.50;100.00
54856;BME280;40748;53.168;5.800;2023-02-19T04:16:45;101770.2;;;8.42;100.00
54856;BME280;40748;53.168;5.800;2023-02-19T04:19:14;101777.36;;;8.46;100.00
54856;BME280;40748;53.168;5.800;2023-02-19T04:21:44;101784.79;;;8.48;100.00
54856;BME280;40748;53.168;5.800;2023-02-19T04:24:15;101793.31;;;8.47;100.00
54856;BME280;40748;53.168;5.800;2023-02-19T04:26:44;101803.12;;;8.43;100.00
54856;BME280;40748;53.168;5.800;2023-02-19T04:29:13;101800.92;;;8.47;100.00
54856;BME280;40748;53.168;5.800;2023-02-19T04:31:43;101808.23000000001;;;8.46;100.00
54856;BME280;40748;53.168;5.800;2023-02-19T04:34:14;101817.76999999999;;;8.42;100.00
54856;BME280;40748;53.168;5.800;2023-02-19T04:39:14;101824.95999999999;;;8.39;100.00
54856;BME280;40748;53.168;5.800;2023-02-19T04:41:43;101828.33;;;8.26;100.00
54856;BME280;40748;53.168;5.800;2023-02-19T04:44:13;101831.47;;;8.24;100.00
54856;BME280;40748;53.168;5.800;2023-02-19T04:46:44;101831.04;;;8.28;100.00
54856;BME280;40748;53.168;5.800;2023-02-19T04:51:44;101837.75;;;8.09;100.00
54856;BME280;40748;53.168;5.800;2023-02-19T04:54:13;101842.58;;;8.16;100.00
54856;BME280;40748;53.168;5.800;2023-02-19T04:56:43;101853.58;;;8.09;100.00
54856;BME280;40748;53.168;5.800;2023-02-19T04:59:13;101861.97;;;8.08;100.00
54856;BME280;40748;53.168;5.800;2023-02-19T05:01:43;101865.95;;;8.14;100.00
54856;BME280;40748;53.168;5.800;2023-02-19T05:04:14;101863.92;;;8.11;100.00
54856;BME280;40748;53.168;5.800;2023-02-19T05:06:43;101875.87;;;8.14;100.00
54856;BME280;40748;53.168;5.800;2023-02-19T05:09:14;101881.84;;;8.11;100.00
54856;BME280;40748;53.168;5.800;2023-02-19T05:11:43;101887.97;;;8.09;100.00
54856;BME280;40748;53.168;5.800;2023-02-19T05:14:13;101891.71;;;8.12;100.00
54856;BME280;40748;53.168;5.800;2023-02-19T05:16:44;101895.39;;;8.10;100.00
54856;BME280;40748;53.168;5.800;2023-02-19T05:19:13;101899.45;;;8.09;100.00
54856;BME280;40748;53.168;5.800;2023-02-19T05:21:44;101902.87;;;8.03;100.00
54856;BME280;40748;53.168;5.800;2023-02-19T05:24:13;101902.95;;;7.93;100.00
54856;BME280;40748;53.168;5.800;2023-02-19T05:26:43;101906.14;;;8.00;100.00
54856;BME280;40748;53.168;5.800;2023-02-19T05:29:14;101908.03;;;8.02;100.00
54856;BME280;40748;53.168;5.800;2023-02-19T05:31:44;101909.55;;;8.04;100.00
54856;BME280;40748;53.168;5.800;2023-02-19T05:34:14;101909.06999999999;;;8.00;100.00
54856;BME280;40748;53.168;5.800;2023-02-19T05:36:43;101905.05;;;8.01;100.00
54856;BME280;40748;53.168;5.800;2023-02-19T05:39:13;101912.8;;;8.00;100.00
54856;BME280;40748;53.168;5.800;2023-02-19T05:41:44;101910.55;;;8.01;100.00
54856;BME280;40748;53.168;5.800;2023-02-19T05:44:13;101915.89;;;8.02;100.00
54856;BME280;40748;53.168;5.800;2023-02-19T05:46:44;101921.8;;;7.97;100.00
54856;BME280;40748;53.168;5.800;2023-02-19T05:49:14;101926.17;;;7.99;100.00
54856;BME280;40748;53.168;5.800;2023-02-19T05:51:44;101929.72;;;7.98;100.00
54856;BME280;40748;53.168;5.800;2023-02-19T05:54:14;101940.14;;;7.99;100.00
54856;BME280;40748;53.168;5.800;2023-02-19T05:56:44;101947.69;;;7.97;100.00
54856;BME280;40748;53.168;5.800;2023-02-19T05:59:15;101952.44;;;7.90;100.00
54856;BME280;40748;53.168;5.800;2023-02-19T06:01:44;101965.20000000001;;;7.92;100.00
54856;BME280;40748;53.168;5.800;2023-02-19T06:04:14;101965.20000000001;;;7.93;100.00
54856;BME280;40748;53.168;5.800;2023-02-19T06:06:44;101978.35;;;7.90;100.00
54856;BME280;40748;53.168;5.800;2023-02-19T06:11:44;102001.22;;;7.89;100.00
54856;BME280;40748;53.168;5.800;2023-02-19T06:14:14;102007.89;;;7.82;100.00
54856;BME280;40748;53.168;5.800;2023-02-19T06:16:43;102010.85;;;7.84;100.00
54856;BME280;40748;53.168;5.800;2023-02-19T06:19:14;102020.75;;;7.80;100.00
54856;BME280;40748;53.168;5.800;2023-02-19T06:24:14;102030.81;;;7.79;100.00
54856;BME280;40748;53.168;5.800;2023-02-19T06:26:44;102040.09;;;7.76;100.00
54856;BME280;40748;53.168;5.800;2023-02-19T06:31:44;102048.24;;;7.73;100.00
54856;BME280;40748;53.168;5.800;2023-02-19T06:34:14;102055.98;;;7.70;100.00
54856;BME280;40748;53.168;5.800;2023-02-19T06:36:44;102063.64;;;7.71;100.00
54856;BME280;40748;53.168;5.800;2023-02-19T06:39:14;102073.56;;;7.72;100.00
54856;BME280;40748;53.168;5.800;2023-02-19T06:41:44;102073.56;;;7.71;100.00
54856;BME280;40748;53.168;5.800;2023-02-19T06:46:44;102089.06;;;7.72;100.00
54856;BME280;40748;53.168;5.800;2023-02-19T06:49:14;102085.99;;;7.71;100.00
54856;BME280;40748;53.168;5.800;2023-02-19T06:51:44;102088.5;;;7.73;100.00
54856;BME280;40748;53.168;5.800;2023-02-19T06:54:14;102094.22;;;7.70;100.00
54856;BME280;40748;53.168;5.800;2023-02-19T06:59:14;102092.03;;;7.65;100.00
54856;BME280;40748;53.168;5.800;2023-02-19T07:01:44;102094.29000000001;;;7.62;100.00
54856;BME280;40748;53.168;5.800;2023-02-19T07:04:14;102098.86;;;7.60;100.00
54856;BME280;40748;53.168;5.800;2023-02-19T07:06:44;102094.97;;;7.55;100.00
54856;BME280;40748;53.168;5.800;2023-02-19T07:09:14;102089.37;;;7.47;100.00
54856;BME280;40748;53.168;5.800;2023-02-19T07:11:44;102088.56;;;7.45;100.00
54856;BME280;40748;53.168;5.800;2023-02-19T07:14:14;102088.56;;;7.44;100.00
54856;BME280;40748;53.168;5.800;2023-02-19T07:16:44;102087.15999999999;;;7.43;100.00
54856;BME280;40748;53.168;5.800;2023-02-19T07:21:44;102093.91;;;7.42;100.00
54856;BME280;40748;53.168;5.800;2023-02-19T07:56:40;102147.0;;;7.20;100.00
54856;BME280;40748;53.168;5.800;2023-02-19T07:57:21;102147.0;;;7.22;100.00
54856;BME280;40748;53.168;5.800;2023-02-19T07:59:51;102146.86;;;7.25;100.00
54856;BME280;40748;53.168;5.800;2023-02-19T08:02:21;102155.74;;;7.29;100.00
54856;BME280;40748;53.168;5.800;2023-02-19T08:04:51;102160.42;;;7.34;100.00
54856;BME280;40748;53.168;5.800;2023-02-19T08:07:21;102169.12;;;7.43;100.00
54856;BME280;40748;53.168;5.800;2023-02-19T08:09:51;102179.97;;;7.63;100.00
54856;BME280;40748;53.168;5.800;2023-02-19T08:14:52;102193.3;;;8.31;100.00
54856;BME280;40748;53.168;5.800;2023-02-19T08:17:22;102204.04999999999;;;8.52;100.00
54856;BME280;40748;53.168;5.800;2023-02-19T08:19:51;102216.16;;;8.60;100.00
54856;BME280;40748;53.168;5.800;2023-02-19T08:22:21;102220.64;;;8.61;100.00
54856;BME280;40748;53.168;5.800;2023-02-19T08:24:51;102227.54;;;8.60;100.00
54856;BME280;40748;53.168;5.800;2023-02-19T08:27:21;102226.28;;;8.62;100.00
54856;BME280;40748;53.168;5.800;2023-02-19T08:29:51;102231.3;;;8.65;100.00
54856;BME280;40748;53.168;5.800;2023-02-19T08:32:21;102238.58;;;8.70;100.00
54856;BME280;40748;53.168;5.800;2023-02-19T08:34:51;102243.40999999999;;;8.76;100.00
54856;BME280;40748;53.168;5.800;2023-02-19T08:37:21;102242.97;;;8.83;100.00
54856;BME280;40748;53.168;5.800;2023-02-19T08:39:52;102248.99;;;8.90;100.00
54856;BME280;40748;53.168;5.800;2023-02-19T08:42:22;102240.41;;;8.98;100.00
54856;BME280;40748;53.168;5.800;2023-02-19T08:44:51;102237.73999999999;;;9.06;100.00
54856;BME280;40748;53.168;5.800;2023-02-19T08:47:21;102250.81999999999;;;9.14;100.00
54856;BME280;40748;53.168;5.800;2023-02-19T08:49:51;102253.86;;;9.22;100.00
54856;BME280;40748;53.168;5.800;2023-02-19T08:52:21;102255.76999999999;;;9.30;100.00
54856;BME280;40748;53.168;5.800;2023-02-19T08:54:51;102271.36;;;9.38;100.00
54856;BME280;40748;53.168;5.800;2023-02-19T08:57:21;102281.84;;;9.50;100.00
54856;BME280;40748;53.168;5.800;2023-02-19T08:59:51;102288.33;;;9.62;100.00
54856;BME280;40748;53.168;5.800;2023-02-19T09:02:21;102297.61;;;9.75;100.00
54856;BME280;40748;53.168;5.800;2023-02-19T09:04:51;102308.5;;;9.87;100.00
54856;BME280;40748;53.168;5.800;2023-02-19T09:07:21;102311.47;;;9.94;100.00
54856;BME280;40748;53.168;5.800;2023-02-19T09:09:51;102316.67;;;10.02;100.00
54856;BME280;40748;53.168;5.800;2023-02-19T09:12:21;102326.97;;;9.98;100.00
54856;BME280;40748;53.168;5.800;2023-02-19T09:14:51;102321.42;;;10.07;100.00
54856;BME280;40748;53.168;5.800;2023-02-19T09:17:22;102325.59999999999;;;10.06;100.00
54856;BME280;40748;53.168;5.800;2023-02-19T09:19:51;102331.94;;;10.14;100.00
54856;BME280;40748;53.168;5.800;2023-02-19T09:22:21;102336.6;;;10.12;100.00
54856;BME280;40748;53.168;5.800;2023-02-19T09:24:51;102346.39;;;10.14;99.71
54856;BME280;40748;53.168;5.800;2023-02-19T09:27:21;102348.8;;;10.31;100.00
54856;BME280;40748;53.168;5.800;2023-02-19T09:29:51;102348.8;;;10.28;100.00
54856;BME280;40748;53.168;5.800;2023-02-19T09:32:21;102355.21;;;10.34;99.86
54856;BME280;40748;53.168;5.800;2023-02-19T09:34:51;102360.19;;;10.32;99.27
54856;BME280;40748;53.168;5.800;2023-02-19T09:37:23;102371.34;;;10.34;98.90
54856;BME280;40748;53.168;5.800;2023-02-19T09:39:51;102356.06;;;10.39;98.85
54856;BME280;40748;53.168;5.800;2023-02-19T09:42:22;102350.92;;;10.47;99.12
54856;BME280;40748;53.168;5.800;2023-02-19T09:44:52;102348.35;;;10.61;99.44
54856;BME280;40748;53.168;5.800;2023-02-19T09:47:22;102345.94;;;10.72;99.82
54856;BME280;40748;53.168;5.800;2023-02-19T09:49:52;102346.54000000001;;;10.83;100.00
54856;BME280;40748;53.168;5.800;2023-02-19T09:52:24;102346.08;;;10.87;99.60
54856;BME280;40748;53.168;5.800;2023-02-19T09:54:52;102346.78;;;10.90;99.23
54856;BME280;40748;53.168;5.800;2023-02-19T09:57:22;102350.09;;;10.93;98.89
54856;BME280;40748;53.168;5.800;2023-02-19T09:59:52;102353.18;;;10.99;98.71
54856;BME280;40748;53.168;5.800;2023-02-19T10:02:22;102361.58;;;11.07;98.88
54856;BME280;40748;53.168;5.800;2023-02-19T10:04:51;102372.19;;;11.15;98.99
54856;BME280;40748;53.168;5.800;2023-02-19T10:07:22;102378.72;;;11.17;98.87
54856;BME280;40748;53.168;5.800;2023-02-19T10:09:52;102383.95000000001;;;11.14;98.37
54856;BME280;40748;53.168;5.800;2023-02-19T10:12:23;102393.08;;;11.06;97.71
54856;BME280;40748;53.168;5.800;2023-02-19T10:14:52;102405.47999999998;;;10.99;97.15
54856;BME280;40748;53.168;5.800;2023-02-19T10:17:22;102408.0;;;10.91;96.71
54856;BME280;40748;53.168;5.800;2023-02-19T10:19:51;102416.88999999998;;;10.83;96.42
54856;BME280;40748;53.168;5.800;2023-02-19T10:22:21;102419.59999999999;;;10.78;96.29
54856;BME280;40748;53.168;5.800;2023-02-19T10:24:52;102420.12999999999;;;10.70;96.14
54856;BME280;40748;53.168;5.800;2023-02-19T10:27:22;102418.40999999999;;;10.69;96.02
54856;BME280;40748;53.168;5.800;2023-02-19T10:32:23;102422.13999999998;;;10.72;95.89
54856;BME280;40748;53.168;5.800;2023-02-19T10:37:21;102418.95999999999;;;10.77;95.71
54856;BME280;40748;53.168;5.800;2023-02-19T10:42:21;102418.4;;;10.81;95.46
54856;BME280;40748;53.168;5.800;2023-02-19T10:44:52;102415.87999999999;;;10.87;95.61
54856;BME280;40748;53.168;5.800;2023-02-19T10:47:22;102416.15;;;10.94;95.84
54856;BME280;40748;53.168;5.800;2023-02-19T10:49:52;102418.18000000001;;;10.99;95.96
54856;BME280;40748;53.168;5.800;2023-02-19T10:52:23;102420.03;;;10.91;95.80
54856;BME280;40748;53.168;5.800;2023-02-19T10:54:52;102428.56;;;10.70;92.54
54856;BME280;40748;53.168;5.800;2023-02-19T10:57:23;102428.56;;;10.75;92.54
54856;BME280;40748;53.168;5.800;2023-02-19T10:59:52;102427.77;;;10.86;95.29
54856;BME280;40748;53.168;5.800;2023-02-19T11:07:21;102437.89;;;11.09;95.33
54856;BME280;40748;53.168;5.800;2023-02-19T11:09:52;102434.54999999999;;;11.16;95.34
54856;BME280;40748;53.168;5.800;2023-02-19T11:12:22;102432.18999999999;;;11.17;95.15
54856;BME280;40748;53.168;5.800;2023-02-19T11:14:51;102429.69;;;11.15;94.99
54856;BME280;40748;53.168;5.800;2023-02-19T11:17:22;102433.67000000001;;;11.10;94.56
54856;BME280;40748;53.168;5.800;2023-02-19T11:19:52;102439.87999999999;;;11.08;92.87
54856;BME280;40748;53.168;5.800;2023-02-19T11:22:28;102432.34;;;11.05;93.70
54856;BME280;40748;53.168;5.800;2023-02-19T11:24:51;102430.43000000001;;;11.00;93.46
54856;BME280;40748;53.168;5.800;2023-02-19T11:27:22;102421.95;;;10.99;93.42
54856;BME280;40748;53.168;5.800;2023-02-19T11:29:52;102418.76;;;11.00;93.17
54856;BME280;40748;53.168;5.800;2023-02-19T11:32:22;102423.39;;;11.01;93.15
54856;BME280;40748;53.168;5.800;2023-02-19T11:35:03;102431.98;;;11.09;93.40
54856;BME280;40748;53.168;5.800;2023-02-19T11:37:21;102436.6;;;11.11;93.53
54856;BME280;40748;53.168;5.800;2023-02-19T11:39:51;102440.00000000001;;;11.01;93.74
54856;BME280;40748;53.168;5.800;2023-02-19T11:42:25;102443.79;;;10.99;93.58
54856;BME280;40748;53.168;5.800;2023-02-19T11:44:55;102448.84;;;11.01;93.73
54856;BME280;40748;53.168;5.800;2023-02-19T11:47:28;102444.52000000002;;;11.04;93.31
54856;BME280;40748;53.168;5.800;2023-02-19T11:49:52;102433.52;;;11.01;92.74
54856;BME280;40748;53.168;5.800;2023-02-19T11:52:24;102434.20000000001;;;10.97;92.21
54856;BME280;40748;53.168;5.800;2023-02-19T11:54:53;102435.66;;;10.92;92.15
54856;BME280;40748;53.168;5.800;2023-02-19T11:57:27;102433.56000000001;;;10.88;91.78
54856;BME280;40748;53.168;5.800;2023-02-19T12:02:26;102437.59999999999;;;11.07;92.08
54856;BME280;40748;53.168;5.800;2023-02-19T12:07:25;102441.52999999998;;;11.89;95.19
54856;BME280;40748;53.168;5.800;2023-02-19T12:09:56;102445.76;;;12.17;96.92
54856;BME280;40748;53.168;5.800;2023-02-19T12:12:25;102455.81;;;12.36;95.81
54856;BME280;40748;53.168;5.800;2023-02-19T12:17:28;102465.20000000001;;;12.59;94.24
54856;BME280;40748;53.168;5.800;2023-02-19T12:19:55;102478.08;;;12.83;94.96
54856;BME280;40748;53.168;5.800;2023-02-19T12:22:25;102483.25;;;12.96;95.62
54856;BME280;40748;53.168;5.800;2023-02-19T12:24:56;102486.15999999999;;;12.93;94.60
54856;BME280;40748;53.168;5.800;2023-02-19T12:27:24;102477.05;;;13.02;93.77
54856;BME280;40748;53.168;5.800;2023-02-19T12:29:59;102472.90000000001;;;13.08;93.21
54856;BME280;40748;53.168;5.800;2023-02-19T12:32:25;102467.91;;;13.03;93.56
54856;BME280;40748;53.168;5.800;2023-02-19T12:37:25;102477.62;;;13.06;92.29
54856;BME280;40748;53.168;5.800;2023-02-19T12:39:54;102479.25;;;13.23;89.53
54856;BME280;40748;53.168;5.800;2023-02-19T12:42:27;102480.22;;;13.34;92.78
54856;BME280;40748;53.168;5.800;2023-02-19T12:44:52;102478.97;;;13.31;91.72
54856;BME280;40748;53.168;5.800;2023-02-19T12:47:22;102498.04999999999;;;13.20;91.10
54856;BME280;40748;53.168;5.800;2023-02-19T12:49:59;102503.63;;;13.11;89.23
54856;BME280;40748;53.168;5.800;2023-02-19T12:52:22;102502.72;;;12.62;87.88
54856;BME280;40748;53.168;5.800;2023-02-19T12:54:52;102512.18;;;12.93;89.49
54856;BME280;40748;53.168;5.800;2023-02-19T12:57:22;102523.49999999999;;;12.48;89.20
54856;BME280;40748;53.168;5.800;2023-02-19T12:59:52;102531.7;;;12.15;82.69
54856;BME280;40748;53.168;5.800;2023-02-19T13:02:23;102531.6;;;12.06;87.68
54856;BME280;40748;53.168;5.800;2023-02-19T13:04:53;102529.85;;;12.12;87.28
54856;BME280;40748;53.168;5.800;2023-02-19T13:07:22;102524.01999999999;;;11.95;86.62
54856;BME280;40748;53.168;5.800;2023-02-19T13:09:52;102518.31999999999;;;11.77;86.07
54856;BME280;40748;53.168;5.800;2023-02-19T13:12:23;102501.6;;;11.90;85.89
54856;BME280;40748;53.168;5.800;2023-02-19T13:14:53;102501.6;;;11.80;85.94
54856;BME280;40748;53.168;5.800;2023-02-19T13:17:23;102503.65;;;11.52;85.20
54856;BME280;40748;53.168;5.800;2023-02-19T13:19:54;102517.66;;;11.66;85.45
54856;BME280;40748;53.168;5.800;2023-02-19T13:22:23;102521.70000000001;;;11.73;86.09
54856;BME280;40748;53.168;5.800;2023-02-19T13:24:52;102529.42;;;11.53;86.17
54856;BME280;40748;53.168;5.800;2023-02-19T13:27:26;102528.19;;;11.57;84.83
54856;BME280;40748;53.168;5.800;2023-02-19T13:29:55;102527.74999999999;;;11.28;86.37
54856;BME280;40748;53.168;5.800;2023-02-19T13:32:24;102529.24;;;11.45;82.27
54856;BME280;40748;53.168;5.800;2023-02-19T13:34:55;102525.6;;;11.40;86.71
54856;BME280;40748;53.168;5.800;2023-02-19T13:37:22;102523.04999999999;;;11.52;86.80
54856;BME280;40748;53.168;5.800;2023-02-19T13:39:52;102516.19;;;11.67;86.35
54856;BME280;40748;53.168;5.800;2023-02-19T13:42:24;102513.46;;;11.63;85.88
54856;BME280;40748;53.168;5.800;2023-02-19T13:44:52;102510.11000000002;;;11.55;85.44
54856;BME280;40748;53.168;5.800;2023-02-19T13:49:52;102498.93;;;11.80;86.33
54856;BME280;40748;53.168;5.800;2023-02-19T13:54:52;102485.40000000001;;;11.99;86.30
54856;BME280;40748;53.168;5.800;2023-02-19T13:57:25;102475.09999999999;;;12.16;86.52
54856;BME280;40748;53.168;5.800;2023-02-19T13:59:52;102475.09999999999;;;12.36;87.00
54856;BME280;40748;53.168;5.800;2023-02-19T14:02:24;102470.97000000002;;;12.49;86.99
54856;BME280;40748;53.168;5.800;2023-02-19T14:04:52;102469.69999999998;;;12.52;87.53
54856;BME280;40748;53.168;5.800;2023-02-19T14:09:52;102474.56999999999;;;12.88;87.38
54856;BME280;40748;53.168;5.800;2023-02-19T14:12:22;102472.28;;;13.25;87.83
54856;BME280;40748;53.168;5.800;2023-02-19T14:14:52;102469.81000000001;;;13.53;87.91
54856;BME280;40748;53.168;5.800;2023-02-19T14:17:24;102453.78;;;13.78;87.30
54856;BME280;40748;53.168;5.800;2023-02-19T14:19:52;102453.28;;;13.63;86.38
54856;BME280;40748;53.168;5.800;2023-02-19T14:24:52;102446.03;;;13.78;84.80
54856;BME280;40748;53.168;5.800;2023-02-19T14:27:22;102444.08;;;13.70;83.58
54856;BME280;40748;53.168;5.800;2023-02-19T14:29:52;102441.43999999999;;;13.68;83.45